createdAt,value
2022-10-31T00:00:00.242Z,10.19
2022-10-31T00:03:03.729Z,10.19
2022-10-31T00:06:08.769Z,10.00
2022-10-31T00:09:12.167Z,10.10
2022-10-31T00:12:15.275Z,10.04
2022-10-31T00:15:18.395Z,9.94
2022-10-31T00:18:21.684Z,9.94
2022-10-31T00:21:26.993Z,9.80
2022-10-31T00:24:30.077Z,10.01
2022-10-31T00:27:33.328Z,9.95
2022-10-31T00:30:36.596Z,9.68
2022-10-31T00:33:41.236Z,9.65
2022-10-31T00:36:45.852Z,9.58
2022-10-31T00:39:50.554Z,9.72
2022-10-31T00:42:53.940Z,9.57
2022-10-31T00:45:57.169Z,9.72
2022-10-31T00:49:01.582Z,9.56
2022-10-31T00:52:06.340Z,9.63
2022-10-31T00:55:10.097Z,9.75
2022-10-31T01:01:22.491Z,9.77
2022-10-31T01:04:26.224Z,9.70
2022-10-31T01:07:30.690Z,9.66
2022-10-31T01:10:34.117Z,9.47
2022-10-31T01:13:37.486Z,9.37
2022-10-31T01:16:40.556Z,9.42
2022-10-31T01:19:43.577Z,9.36
2022-10-31T01:22:47.961Z,9.32
2022-10-31T01:25:51.059Z,9.17
2022-10-31T01:28:56.880Z,9.27
2022-10-31T01:32:00.000Z,9.27
2022-10-31T01:35:03.087Z,9.44
2022-10-31T01:38:07.753Z,9.13
2022-10-31T01:41:14.016Z,9.10
2022-10-31T01:45:00.045Z,9.20
2022-10-31T01:48:04.082Z,9.23
2022-10-31T01:51:07.684Z,9.26
2022-10-31T01:54:17.236Z,9.14
2022-10-31T01:57:22.457Z,9.09
2022-10-31T02:00:27.858Z,9.11
2022-10-31T02:03:31.987Z,9.02
2022-10-31T02:06:39.715Z,9.11
2022-10-31T02:09:46.993Z,9.16
2022-10-31T02:12:52.302Z,9.13
2022-10-31T02:15:59.404Z,9.08
2022-10-31T02:19:02.667Z,8.94
2022-10-31T02:22:14.784Z,8.95
2022-10-31T02:25:42.336Z,8.86
2022-10-31T02:29:07.031Z,8.99
2022-10-31T02:32:17.951Z,8.87
2022-10-31T02:35:31.347Z,8.80
2022-10-31T02:38:52.137Z,8.78
2022-10-31T02:42:11.454Z,8.81
2022-10-31T02:45:20.219Z,8.81
2022-10-31T02:48:29.768Z,8.89
2022-10-31T02:51:33.076Z,8.73
2022-10-31T02:54:36.239Z,8.80
2022-10-31T02:57:41.764Z,8.97
2022-10-31T03:00:58.376Z,9.01
2022-10-31T03:04:25.217Z,8.97
2022-10-31T03:07:41.757Z,8.70
2022-10-31T03:10:49.312Z,8.72
2022-10-31T03:13:59.625Z,8.56
2022-10-31T03:17:08.004Z,8.71
2022-10-31T03:20:13.084Z,8.76
2022-10-31T03:23:20.391Z,8.63
2022-10-31T03:26:27.662Z,8.64
2022-10-31T03:29:35.447Z,8.65
2022-10-31T03:32:43.141Z,8.71
2022-10-31T03:35:50.328Z,8.57
2022-10-31T03:38:54.417Z,8.11
2022-10-31T03:42:00.739Z,8.49
2022-10-31T03:45:10.054Z,8.41
2022-10-31T03:48:14.973Z,8.27
2022-10-31T03:51:25.397Z,8.39
2022-10-31T03:54:38.553Z,8.37
2022-10-31T03:57:45.097Z,8.35
2022-10-31T04:00:53.457Z,8.46
2022-10-31T04:03:58.335Z,8.25
2022-10-31T04:07:05.281Z,8.13
2022-10-31T04:10:12.989Z,8.17
2022-10-31T04:13:24.966Z,8.07
2022-10-31T04:16:37.515Z,8.04
2022-10-31T04:19:40.676Z,7.96
2022-10-31T04:22:45.693Z,8.03
2022-10-31T04:25:48.802Z,7.84
2022-10-31T04:28:53.578Z,7.62
2022-10-31T04:34:19.444Z,7.73
2022-10-31T04:37:22.605Z,7.92
2022-10-31T04:40:26.318Z,8.07
2022-10-31T04:43:47.911Z,7.92
2022-10-31T04:46:51.049Z,7.34
2022-10-31T04:49:55.521Z,7.88
2022-10-31T04:52:58.717Z,8.04
2022-10-31T04:56:06.501Z,8.19
2022-10-31T04:59:17.579Z,7.86
2022-10-31T05:02:30.746Z,7.72
2022-10-31T05:05:37.064Z,7.71
2022-10-31T05:08:40.668Z,7.44
2022-10-31T05:11:45.099Z,7.64
2022-10-31T05:15:03.637Z,7.46
2022-10-31T05:18:25.218Z,7.59
2022-10-31T05:21:48.281Z,7.53
2022-10-31T05:24:51.434Z,7.48
2022-10-31T05:27:56.646Z,7.20
2022-10-31T05:30:59.868Z,7.46
2022-10-31T05:34:02.990Z,7.55
2022-10-31T05:37:30.295Z,7.43
2022-10-31T05:40:33.595Z,7.42
2022-10-31T05:43:36.760Z,7.37
2022-10-31T05:46:43.491Z,7.32
2022-10-31T05:50:12.827Z,7.30
2022-10-31T05:53:25.518Z,7.10
2022-10-31T05:56:28.620Z,7.51
2022-10-31T05:59:31.942Z,7.35
2022-10-31T06:02:35.533Z,7.65
2022-10-31T06:05:58.988Z,7.42
2022-10-31T06:09:08.970Z,7.42
2022-10-31T06:12:13.231Z,7.39
2022-10-31T06:15:34.670Z,7.46
2022-10-31T06:18:37.912Z,7.69
2022-10-31T06:21:41.090Z,7.77
2022-10-31T06:24:45.772Z,7.83
2022-10-31T06:28:11.121Z,7.80
2022-10-31T06:31:33.293Z,7.43
2022-10-31T06:34:37.008Z,7.80
2022-10-31T06:37:41.883Z,7.78
2022-10-31T06:41:06.357Z,7.87
2022-10-31T06:44:19.333Z,7.92
2022-10-31T06:47:31.278Z,7.93
2022-10-31T06:50:43.906Z,8.03
2022-10-31T06:53:47.172Z,8.07
2022-10-31T06:56:54.558Z,8.25
2022-10-31T06:59:58.726Z,8.22
2022-10-31T07:03:13.669Z,8.00
2022-10-31T07:06:17.011Z,8.37
2022-10-31T07:09:20.203Z,8.44
2022-10-31T07:12:25.291Z,8.50
2022-10-31T07:15:36.687Z,8.59
2022-10-31T07:18:39.926Z,8.66
2022-10-31T07:21:43.318Z,8.59
2022-10-31T07:24:50.347Z,8.63
2022-10-31T07:28:13.402Z,8.70
2022-10-31T07:31:16.646Z,8.64
2022-10-31T07:34:19.907Z,8.68
2022-10-31T07:37:52.344Z,8.56
2022-10-31T07:40:56.082Z,8.73
2022-10-31T07:44:01.786Z,8.77
2022-10-31T07:47:23.425Z,8.91
2022-10-31T07:51:04.902Z,8.87
2022-10-31T07:54:28.536Z,9.10
2022-10-31T07:57:34.494Z,9.21
2022-10-31T08:00:40.883Z,9.39
2022-10-31T08:03:44.897Z,9.67
2022-10-31T08:07:26.446Z,10.09
2022-10-31T08:10:38.503Z,10.06
2022-10-31T08:13:43.683Z,10.13
2022-10-31T08:16:51.066Z,10.45
2022-10-31T08:19:54.128Z,10.59
2022-10-31T08:23:03.661Z,10.45
2022-10-31T08:26:08.979Z,10.29
2022-10-31T08:29:13.704Z,10.30
2022-10-31T08:32:19.321Z,10.36
2022-10-31T08:35:34.492Z,10.35
2022-10-31T08:39:01.578Z,10.39
2022-10-31T08:42:05.802Z,10.55
2022-10-31T08:45:09.551Z,10.65
2022-10-31T08:48:15.955Z,10.79
2022-10-31T08:51:19.383Z,11.05
2022-10-31T08:54:24.729Z,11.20
2022-10-31T08:57:27.814Z,11.36
2022-10-31T09:00:31.242Z,11.75
2022-10-31T09:03:44.329Z,12.10
2022-10-31T09:07:19.775Z,12.23
2022-10-31T09:10:11.006Z,12.78
2022-10-31T09:13:16.882Z,12.68
2022-10-31T09:16:55.141Z,13.06
2022-10-31T09:20:04.975Z,13.02
2022-10-31T09:23:12.996Z,13.22
2022-10-31T09:26:16.130Z,13.27
2022-10-31T09:29:51.299Z,13.22
2022-10-31T09:32:59.249Z,13.11
2022-10-31T09:36:03.995Z,13.22
2022-10-31T09:39:08.319Z,13.33
2022-10-31T09:42:39.798Z,13.67
2022-10-31T09:46:00.624Z,13.90
2022-10-31T09:49:35.071Z,13.91
2022-10-31T09:52:45.624Z,14.26
2022-10-31T09:55:51.601Z,14.34
2022-10-31T09:58:59.075Z,13.98
2022-10-31T10:02:05.234Z,14.29
2022-10-31T10:05:13.944Z,14.42
2022-10-31T10:08:24.669Z,14.41
2022-10-31T10:12:05.220Z,14.79
2022-10-31T10:15:27.225Z,14.71
2022-10-31T10:18:42.337Z,14.85
2022-10-31T10:21:53.035Z,15.10
2022-10-31T10:25:12.529Z,15.39
2022-10-31T10:28:23.319Z,15.34
2022-10-31T10:34:24.967Z,15.49
2022-10-31T10:37:32.851Z,15.70
2022-10-31T10:40:35.738Z,15.83
2022-10-31T10:43:39.796Z,15.75
2022-10-31T10:47:02.465Z,15.76
2022-10-31T10:50:12.246Z,16.11
2022-10-31T10:53:36.172Z,16.39
2022-10-31T10:56:47.968Z,16.42
2022-10-31T10:59:51.317Z,16.46
2022-10-31T11:02:54.914Z,16.56
2022-10-31T11:06:02.108Z,16.65
2022-10-31T11:09:11.862Z,16.59
2022-10-31T11:12:23.006Z,16.65
2022-10-31T11:15:28.341Z,16.83
2022-10-31T11:18:33.753Z,16.98
2022-10-31T11:21:38.229Z,16.76
2022-10-31T11:24:42.951Z,17.07
2022-10-31T11:27:46.528Z,16.95
2022-10-31T11:30:52.220Z,16.99
2022-10-31T11:34:00.951Z,17.16
2022-10-31T11:37:14.818Z,17.39
2022-10-31T11:40:21.332Z,17.38
2022-10-31T11:43:25.375Z,17.55
2022-10-31T11:46:35.358Z,17.39
2022-10-31T11:49:41.874Z,17.45
2022-10-31T11:52:46.665Z,17.43
2022-10-31T11:56:01.957Z,17.69
2022-10-31T11:59:07.528Z,17.74
2022-10-31T12:02:21.011Z,17.74
2022-10-31T12:05:32.052Z,17.70
2022-10-31T12:08:38.537Z,17.90
2022-10-31T12:11:51.651Z,17.64
2022-10-31T12:15:05.291Z,17.63
2022-10-31T12:18:38.971Z,17.78
2022-10-31T12:21:59.818Z,17.93
2022-10-31T12:25:19.791Z,18.03
2022-10-31T12:28:55.498Z,18.04
2022-10-31T12:32:15.918Z,18.04
2022-10-31T12:35:32.173Z,17.96
2022-10-31T12:38:59.634Z,17.97
2022-10-31T12:42:15.283Z,18.03
2022-10-31T12:45:36.050Z,17.96
2022-10-31T12:49:00.164Z,17.97
2022-10-31T12:52:15.829Z,18.06
2022-10-31T12:55:35.089Z,18.00
2022-10-31T12:58:45.553Z,18.16
2022-10-31T13:01:53.628Z,17.99
2022-10-31T13:04:59.737Z,17.85
2022-10-31T13:08:08.526Z,17.94
2022-10-31T13:11:15.745Z,17.88
2022-10-31T13:14:27.668Z,17.93
2022-10-31T13:17:36.782Z,17.87
2022-10-31T13:20:44.151Z,17.98
2022-10-31T13:23:51.761Z,17.71
2022-10-31T13:26:58.457Z,17.58
2022-10-31T13:30:06.664Z,17.76
2022-10-31T13:33:16.023Z,17.90
2022-10-31T13:36:28.234Z,17.82
2022-10-31T13:39:41.901Z,17.99
2022-10-31T13:42:55.970Z,17.83
2022-10-31T13:46:00.485Z,17.92
2022-10-31T13:49:03.858Z,17.81
2022-10-31T13:52:14.819Z,18.17
2022-10-31T13:55:52.389Z,18.27
2022-10-31T13:59:21.682Z,18.25
2022-10-31T14:02:29.652Z,18.10
2022-10-31T14:05:35.235Z,18.00
2022-10-31T14:08:42.689Z,18.13
2022-10-31T14:11:48.458Z,17.85
2022-10-31T14:14:54.934Z,17.89
2022-10-31T14:18:01.601Z,17.76
2022-10-31T14:21:16.405Z,17.64
2022-10-31T14:24:37.942Z,17.36
2022-10-31T14:27:48.726Z,17.47
2022-10-31T14:30:57.076Z,17.43
2022-10-31T14:34:02.709Z,17.27
2022-10-31T14:37:34.881Z,17.22
2022-10-31T14:44:30.997Z,17.03
2022-10-31T14:47:45.054Z,17.02
2022-10-31T14:50:52.521Z,16.96
2022-10-31T14:53:58.286Z,16.80
2022-10-31T14:57:08.875Z,16.72
2022-10-31T15:00:19.421Z,16.63
2022-10-31T15:03:30.620Z,16.47
2022-10-31T15:06:42.535Z,16.45
2022-10-31T15:09:46.467Z,16.39
2022-10-31T15:12:49.599Z,16.29
2022-10-31T15:15:56.290Z,16.12
2022-10-31T15:19:01.711Z,16.09
2022-10-31T15:22:06.276Z,15.83
2022-10-31T15:25:19.518Z,15.68
2022-10-31T15:28:25.763Z,15.73
2022-10-31T15:31:29.238Z,15.69
2022-10-31T15:34:40.521Z,15.68
2022-10-31T15:37:45.260Z,15.70
2022-10-31T15:40:55.254Z,15.53
2022-10-31T15:44:05.420Z,15.43
2022-10-31T15:47:18.791Z,15.30
2022-10-31T15:50:25.727Z,15.35
2022-10-31T15:53:38.335Z,15.12
2022-10-31T15:56:44.995Z,15.14
2022-10-31T15:59:49.991Z,15.21
2022-10-31T16:03:05.040Z,15.06
2022-10-31T16:06:09.002Z,14.93
2022-10-31T16:09:23.907Z,15.02
2022-10-31T16:12:36.875Z,14.81
2022-10-31T16:15:40.141Z,14.73
2022-10-31T16:18:44.253Z,14.58
2022-10-31T16:21:49.726Z,14.54
2022-10-31T16:24:59.399Z,14.51
2022-10-31T16:28:06.507Z,14.43
2022-10-31T16:34:26.536Z,14.21
2022-10-31T16:37:30.327Z,14.12
2022-10-31T16:40:34.530Z,14.12
2022-10-31T16:43:37.729Z,14.07
2022-10-31T16:46:41.005Z,14.12
2022-10-31T16:49:48.296Z,13.99
2022-10-31T16:56:19.082Z,13.71
2022-10-31T16:59:22.279Z,13.54
2022-10-31T17:02:25.856Z,13.48
2022-10-31T17:05:32.852Z,13.44
2022-10-31T17:08:36.375Z,13.50
2022-10-31T17:11:49.323Z,13.46
2022-10-31T17:14:53.981Z,13.42
2022-10-31T17:17:57.473Z,13.30
2022-10-31T17:21:06.031Z,13.10
2022-10-31T17:24:13.306Z,13.15
2022-10-31T17:27:16.408Z,13.03
2022-10-31T17:30:21.942Z,12.85
2022-10-31T17:33:25.027Z,12.84
2022-10-31T17:36:29.514Z,12.89
2022-10-31T17:39:32.702Z,12.82
2022-10-31T17:42:35.878Z,12.84
2022-10-31T17:45:40.787Z,12.66
2022-10-31T17:48:43.908Z,12.73
2022-10-31T17:51:48.427Z,12.61
2022-10-31T17:54:51.517Z,12.81
2022-10-31T17:57:54.638Z,12.66
2022-10-31T18:00:58.161Z,12.54
2022-10-31T18:04:01.245Z,12.53
2022-10-31T18:07:05.945Z,12.42
2022-10-31T18:10:10.240Z,12.35
2022-10-31T18:13:13.419Z,12.22
2022-10-31T18:16:19.092Z,12.15
2022-10-31T18:19:22.174Z,12.00
2022-10-31T18:22:26.731Z,11.96
2022-10-31T18:25:29.908Z,12.08
2022-10-31T18:28:33.431Z,12.13
2022-10-31T18:31:37.088Z,12.09
2022-10-31T18:34:40.179Z,12.04
2022-10-31T18:37:44.970Z,11.85
2022-10-31T18:40:48.224Z,11.79
2022-10-31T18:43:52.094Z,11.76
2022-10-31T18:46:55.206Z,11.82
2022-10-31T18:49:58.333Z,11.85
2022-10-31T18:53:03.115Z,11.87
2022-10-31T18:56:09.092Z,11.76
2022-10-31T18:59:12.574Z,11.65
2022-10-31T19:02:17.343Z,11.75
2022-10-31T19:05:22.125Z,11.51
2022-10-31T19:11:35.807Z,11.61
2022-10-31T19:14:39.057Z,11.59
2022-10-31T19:17:42.134Z,11.38
2022-10-31T19:20:45.258Z,11.41
2022-10-31T19:23:49.859Z,11.49
2022-10-31T19:26:52.949Z,11.50
2022-10-31T19:29:56.318Z,11.22
2022-10-31T19:32:59.579Z,11.35
2022-10-31T19:36:03.952Z,11.36
2022-10-31T19:39:08.525Z,11.10
2022-10-31T19:42:11.665Z,11.11
2022-10-31T19:45:15.394Z,11.09
2022-10-31T19:48:18.510Z,11.14
2022-10-31T19:51:22.548Z,11.14
2022-10-31T19:54:27.021Z,11.13
2022-10-31T19:57:56.313Z,10.97
2022-10-31T20:00:54.177Z,11.05
2022-10-31T20:03:57.414Z,11.16
2022-10-31T20:07:00.501Z,11.11
2022-10-31T20:10:05.300Z,11.15
2022-10-31T20:13:08.439Z,10.83
2022-10-31T20:16:13.867Z,10.76
2022-10-31T20:19:16.996Z,10.84
2022-10-31T20:22:20.477Z,10.70
2022-10-31T20:25:24.942Z,10.55
2022-10-31T20:28:28.571Z,10.58
2022-10-31T20:31:33.121Z,10.44
2022-10-31T20:34:36.731Z,10.46
2022-10-31T20:37:39.893Z,10.44
2022-10-31T20:40:44.499Z,10.37
2022-10-31T20:43:48.064Z,10.36
2022-10-31T20:46:51.369Z,10.32
2022-10-31T20:49:54.591Z,10.24
2022-10-31T20:52:57.671Z,10.23
2022-10-31T20:56:06.957Z,10.33
2022-10-31T20:59:12.322Z,10.22
2022-10-31T21:02:15.733Z,10.17
2022-10-31T21:05:21.006Z,10.28
2022-10-31T21:08:24.862Z,9.75
2022-10-31T21:11:29.868Z,9.97
2022-10-31T21:14:33.068Z,10.09
2022-10-31T21:17:36.549Z,10.03
2022-10-31T21:20:41.648Z,9.87
2022-10-31T21:23:45.084Z,9.94
2022-10-31T21:26:52.205Z,9.98
2022-10-31T21:29:55.347Z,10.02
2022-10-31T21:32:58.371Z,10.18
2022-10-31T21:36:01.551Z,10.21
2022-10-31T21:39:06.662Z,10.25
2022-10-31T21:42:11.316Z,10.14
2022-10-31T21:45:14.626Z,10.23
2022-10-31T21:48:17.717Z,10.14
2022-10-31T21:51:23.346Z,10.16
2022-10-31T21:54:30.239Z,10.19
2022-10-31T21:57:34.928Z,10.20
2022-10-31T22:00:38.028Z,10.00
2022-10-31T22:03:42.635Z,10.08
2022-10-31T22:06:45.857Z,10.02
2022-10-31T22:09:49.092Z,10.27
2022-10-31T22:12:53.519Z,10.10
2022-10-31T22:16:00.529Z,10.12
2022-10-31T22:19:05.626Z,10.15
2022-10-31T22:22:08.919Z,10.25
2022-10-31T22:25:12.098Z,10.10
2022-10-31T22:28:16.551Z,10.21
2022-10-31T22:34:19.954Z,10.10
2022-10-31T22:37:23.104Z,10.04
2022-10-31T22:40:26.211Z,10.08
2022-10-31T22:43:29.276Z,10.10
2022-10-31T22:46:34.327Z,9.98
2022-10-31T22:49:38.836Z,9.94
2022-10-31T22:52:41.964Z,9.85
2022-10-31T22:55:45.071Z,9.87
2022-10-31T22:58:49.358Z,9.80
2022-10-31T23:01:54.344Z,9.74
2022-10-31T23:04:58.991Z,9.73
2022-10-31T23:08:02.397Z,9.67
2022-10-31T23:11:14.844Z,9.80
2022-10-31T23:14:20.583Z,9.54
2022-10-31T23:17:23.956Z,9.60
2022-10-31T23:20:28.515Z,9.52
2022-10-31T23:23:35.130Z,9.66
2022-10-31T23:26:56.438Z,9.73
2022-10-31T23:30:00.227Z,9.61
2022-10-31T23:33:03.790Z,9.74
2022-10-31T23:36:09.551Z,9.80
2022-10-31T23:39:12.711Z,9.65
2022-10-31T23:42:16.596Z,9.64
2022-10-31T23:45:19.717Z,9.73
2022-10-31T23:48:23.013Z,9.74
2022-10-31T23:51:27.415Z,9.55
2022-10-31T23:54:31.031Z,9.49
2022-10-31T23:57:34.160Z,9.49
